San Francisco del Monte de Oro, Argentina
Current Conditions -  °F | °C
As of 1:00 AM on Wednesday 22 Oct 2014 (Local Time) from SAOC Reporting Station
Clear Clear  
Wind Chill: 68°   Ceiling: Unl
Heat Index: 68°   Visibility: 6mi
Dew Point: 55°   Wind: 9mph
Humidity: 64%   Direction: 360°N
Pressure: 29.94"   Gusts: NA
Location:  32.6°S, 66.13°W
Report Text: SAOC 220400Z 36008KT CAVOK 20/13 Q1014
Loading
Personal Weather Stations






























Interactive Weather Map
Tropical Storm Tracking
New forecast layout! Learn more

10-Day Weather Forecast

Advertisements
Track Severe Weather on mobile